Time;durP1;ratioP1;P1;durP2;ratioP2;P2;SDS_P1;SDS_P2;PMS_P1;PMS_P2;Temp;Humidity;BMP_temperature;BMP_pressure;BME280_temperature;BME280_humidity;BME280_pressure;Samples;Min_cycle;Max_cycle;Signal;HPM_P1;HPM_P2
2022/06/10 00:00:17;;;;;;;3.33;1.42;;;;;;;;;;5065256;28;20193;-70
2022/06/10 00:02:44;;;;;;;3.35;1.58;;;;;;;;;;5065170;28;20201;-69
2022/06/10 00:05:11;;;;;;;2.90;1.27;;;;;;;;;;5065318;28;20233;-69
2022/06/10 00:07:38;;;;;;;3.25;1.20;;;;;;;;;;5065189;28;20189;-69
2022/06/10 00:10:04;;;;;;;6.53;1.70;;;;;;;;;;5065047;28;20249;-69
2022/06/10 00:12:31;;;;;;;3.45;1.55;;;;;;;;;;5065194;28;20197;-70
2022/06/10 00:14:57;;;;;;;1.92;1.60;;;;;;;;;;5065132;28;20201;-70
2022/06/10 00:17:25;;;;;;;7.55;1.27;;;;;;;;;;5064843;28;20201;-70
2022/06/10 00:19:51;;;;;;;3.03;1.20;;;;;;;;;;5065371;28;20201;-70
2022/06/10 00:22:17;;;;;;;4.55;1.30;;;;;;;;;;5065087;28;20197;-70
2022/06/10 00:24:43;;;;;;;4.68;1.63;;;;;;;;;;5064944;28;20204;-70
2022/06/10 00:27:10;;;;;;;1.45;1.35;;;;;;;;;;5064500;28;20209;-70
2022/06/10 00:29:36;;;;;;;1.70;1.60;;;;;;;;;;5064554;28;20213;-70
2022/06/10 00:32:02;;;;;;;1.65;1.55;;;;;;;;;;5064818;28;20204;-70
2022/06/10 00:34:30;;;;;;;2.75;1.40;;;;;;;;;;5064871;28;20197;-70
2022/06/10 00:36:57;;;;;;;2.72;1.50;;;;;;;;;;5064353;28;20268;-70
2022/06/10 00:39:23;;;;;;;3.38;1.38;;;;;;;;;;5064650;28;20467;-70
2022/06/10 00:41:49;;;;;;;2.30;1.30;;;;;;;;;;5065024;28;20203;-70
2022/06/10 00:44:35;;;;;;;1.83;1.42;;;;;;;;;;5064248;28;20204;-70
2022/06/10 00:47:02;;;;;;;3.17;1.50;;;;;;;;;;5064471;28;20204;-70
2022/06/10 00:49:31;;;;;;;5.00;1.60;;;;;;;;;;5064056;28;20224;-70
2022/06/10 00:51:59;;;;;;;1.48;1.38;;;;;;;;;;5064724;28;20517;-70
2022/06/10 00:54:26;;;;;;;2.55;1.50;;;;;;;;;;5064213;28;20197;-70
2022/06/10 00:56:55;;;;;;;2.67;1.33;;;;;;;;;;5063866;28;20365;-69
2022/06/10 00:59:23;;;;;;;3.65;1.50;;;;;;;;;;5064275;28;20193;-70
2022/06/10 01:01:51;;;;;;;2.30;1.42;;;;;;;;;;5064387;28;20205;-70
2022/06/10 01:04:18;;;;;;;1.65;1.38;;;;;;;;;;5064098;28;20263;-70
2022/06/10 01:06:45;;;;;;;4.50;1.83;;;;;;;;;;5063890;28;20262;-69
2022/06/10 01:09:13;;;;;;;4.70;1.88;;;;;;;;;;5063992;28;20221;-69
2022/06/10 01:11:57;;;;;;;3.40;1.50;;;;;;;;;;5064150;28;20197;-70
2022/06/10 01:14:28;;;;;;;3.53;1.30;;;;;;;;;;5064180;28;20204;-70
2022/06/10 01:17:01;;;;;;;2.88;1.45;;;;;;;;;;5063810;28;20197;-70
2022/06/10 01:19:35;;;;;;;3.05;1.45;;;;;;;;;;5063974;28;20239;-70
2022/06/10 01:22:22;;;;;;;3.20;1.40;;;;;;;;;;5064186;28;20481;-70
2022/06/10 01:25:01;;;;;;;2.28;1.50;;;;;;;;;;5046493;28;20219;-69
2022/06/10 01:27:48;;;;;;;1.58;1.45;;;;;;;;;;5063567;28;20197;-70
2022/06/10 01:30:17;;;;;;;1.85;1.33;;;;;;;;;;5063462;28;20252;-70
2022/06/10 01:32:51;;;;;;;2.83;1.60;;;;;;;;;;5063933;28;20411;-69
2022/06/10 01:35:20;;;;;;;5.32;1.70;;;;;;;;;;5063692;28;20205;-69
2022/06/10 01:37:53;;;;;;;3.00;1.58;;;;;;;;;;5063365;28;20268;-69
2022/06/10 01:40:24;;;;;;;3.83;1.77;;;;;;;;;;5063428;28;20196;-69
2022/06/10 01:42:54;;;;;;;1.92;1.70;;;;;;;;;;5062966;28;20504;-69
2022/06/10 01:45:25;;;;;;;4.32;1.52;;;;;;;;;;5063542;28;20211;-69
2022/06/10 01:47:55;;;;;;;1.40;1.23;;;;;;;;;;5063342;28;20204;-69
2022/06/10 01:50:23;;;;;;;6.22;1.80;;;;;;;;;;5063095;28;20225;-69
2022/06/10 01:52:51;;;;;;;3.22;1.60;;;;;;;;;;5063138;28;20504;-69
2022/06/10 01:55:20;;;;;;;1.50;1.40;;;;;;;;;;5063266;28;20212;-69
2022/06/10 01:57:49;;;;;;;1.52;1.42;;;;;;;;;;5062929;28;20196;-69
2022/06/10 02:00:18;;;;;;;1.75;1.65;;;;;;;;;;5062892;28;20197;-69
2022/06/10 02:02:57;;;;;;;1.88;1.70;;;;;;;;;;5063148;28;20527;-70
2022/06/10 02:05:27;;;;;;;4.57;1.90;;;;;;;;;;5062979;28;20232;-69
2022/06/10 02:07:56;;;;;;;4.00;1.70;;;;;;;;;;5062859;28;20203;-69
2022/06/10 02:10:26;;;;;;;3.78;1.85;;;;;;;;;;5062999;28;20543;-69
2022/06/10 02:12:54;;;;;;;1.95;1.85;;;;;;;;;;5062997;28;20401;-69
2022/06/10 02:15:21;;;;;;;1.45;1.45;;;;;;;;;;5062827;28;20532;-69
2022/06/10 02:17:50;;;;;;;1.60;1.58;;;;;;;;;;5062575;28;20197;-69
2022/06/10 02:20:19;;;;;;;2.03;1.65;;;;;;;;;;5062916;28;20391;-69
2022/06/10 02:22:48;;;;;;;4.05;2.05;;;;;;;;;;5062714;28;20497;-69
2022/06/10 02:25:15;;;;;;;4.45;1.77;;;;;;;;;;5062780;28;20204;-69
2022/06/10 02:27:44;;;;;;;3.67;1.77;;;;;;;;;;5062425;28;20207;-70
2022/06/10 02:30:13;;;;;;;2.05;1.98;;;;;;;;;;5062515;28;20221;-69
2022/06/10 02:32:40;;;;;;;2.08;1.90;;;;;;;;;;5062807;28;20201;-69
2022/06/10 02:35:07;;;;;;;1.98;1.88;;;;;;;;;;5062531;28;20204;-69
2022/06/10 02:37:35;;;;;;;2.10;1.60;;;;;;;;;;5062315;28;20528;-69
2022/06/10 02:40:08;;;;;;;1.83;1.60;;;;;;;;;;5062989;28;20201;-69
2022/06/10 02:42:36;;;;;;;3.55;2.10;;;;;;;;;;5062379;28;20205;-70
2022/06/10 02:45:08;;;;;;;4.35;2.00;;;;;;;;;;5062765;28;20440;-69
2022/06/10 02:47:40;;;;;;;4.93;1.77;;;;;;;;;;5062236;28;20399;-69
2022/06/10 02:50:07;;;;;;;2.10;2.00;;;;;;;;;;5062242;28;20563;-70
2022/06/10 02:52:35;;;;;;;3.40;1.73;;;;;;;;;;5062375;28;20423;-69
2022/06/10 02:55:02;;;;;;;3.38;2.00;;;;;;;;;;5062274;28;20204;-69
2022/06/10 03:03:01;;;;;;;2.72;2.20;;;;;;;;;;5062008;28;20231;-69
2022/06/10 03:05:31;;;;;;;2.47;1.80;;;;;;;;;;5061957;28;20228;-69
2022/06/10 03:08:06;;;;;;;2.95;1.90;;;;;;;;;;5062131;28;20216;-69
2022/06/10 03:10:37;;;;;;;3.47;2.20;;;;;;;;;;5062289;28;20212;-69
2022/06/10 03:13:22;;;;;;;2.38;2.13;;;;;;;;;;5065317;28;20203;-69
2022/06/10 03:15:57;;;;;;;2.08;1.98;;;;;;;;;;5066253;28;20204;-69
2022/06/10 03:18:27;;;;;;;2.67;2.45;;;;;;;;;;5066337;28;20203;-69
2022/06/10 03:20:58;;;;;;;4.25;2.50;;;;;;;;;;5066238;28;20193;-69
2022/06/10 03:23:29;;;;;;;5.15;2.60;;;;;;;;;;5066299;28;20197;-69
2022/06/10 03:25:57;;;;;;;5.75;2.63;;;;;;;;;;5066030;28;20231;-69
2022/06/10 03:28:26;;;;;;;3.20;2.42;;;;;;;;;;5065816;28;20353;-69
2022/06/10 03:30:55;;;;;;;3.72;2.40;;;;;;;;;;5066066;28;20221;-69
2022/06/10 03:33:24;;;;;;;5.80;2.17;;;;;;;;;;5065964;28;20197;-69
2022/06/10 03:35:52;;;;;;;4.85;2.40;;;;;;;;;;5066164;28;20200;-70
2022/06/10 03:38:19;;;;;;;2.63;2.42;;;;;;;;;;5065633;28;20197;-69
2022/06/10 03:40:52;;;;;;;4.55;2.25;;;;;;;;;;5065677;28;20200;-69
2022/06/10 03:43:18;;;;;;;3.10;2.30;;;;;;;;;;5065807;28;20204;-69
2022/06/10 03:45:47;;;;;;;2.92;2.00;;;;;;;;;;5065671;28;20197;-69
2022/06/10 03:48:15;;;;;;;2.60;2.35;;;;;;;;;;5065379;28;20197;-69
2022/06/10 03:50:42;;;;;;;2.72;2.10;;;;;;;;;;5065512;28;20220;-69
2022/06/10 03:53:13;;;;;;;2.75;2.05;;;;;;;;;;5065390;28;20505;-69
2022/06/10 03:55:40;;;;;;;3.13;2.10;;;;;;;;;;5065644;28;20201;-69
2022/06/10 03:58:07;;;;;;;3.65;2.22;;;;;;;;;;5065467;28;20235;-69
2022/06/10 04:00:33;;;;;;;1.88;1.77;;;;;;;;;;5065379;28;20422;-69
2022/06/10 04:03:00;;;;;;;3.72;1.90;;;;;;;;;;5065207;28;20201;-69
2022/06/10 04:05:27;;;;;;;7.78;2.20;;;;;;;;;;5064371;28;20232;-69
2022/06/10 04:07:53;;;;;;;2.53;2.20;;;;;;;;;;5063671;28;20635;-69
2022/06/10 04:10:20;;;;;;;6.88;2.55;;;;;;;;;;5063824;28;20217;-69
2022/06/10 04:12:47;;;;;;;3.55;2.30;;;;;;;;;;5063918;28;20204;-69
2022/06/10 04:15:14;;;;;;;3.22;2.53;;;;;;;;;;5064107;28;20544;-69
2022/06/10 04:17:41;;;;;;;2.40;2.30;;;;;;;;;;5063671;28;20259;-70
2022/06/10 04:20:12;;;;;;;5.97;2.40;;;;;;;;;;5064178;28;20193;-70
2022/06/10 04:22:38;;;;;;;3.75;2.40;;;;;;;;;;5063363;28;20205;-70
2022/06/10 04:25:05;;;;;;;4.82;2.20;;;;;;;;;;5064012;28;20197;-70
2022/06/10 04:27:31;;;;;;;2.40;1.98;;;;;;;;;;5063487;28;20197;-70
2022/06/10 04:29:58;;;;;;;3.03;2.63;;;;;;;;;;5063608;28;20205;-70
2022/06/10 04:32:24;;;;;;;4.13;3.30;;;;;;;;;;5063650;28;20197;-70
2022/06/10 04:34:51;;;;;;;2.47;2.10;;;;;;;;;;5063695;28;20197;-69
2022/06/10 04:37:18;;;;;;;2.92;2.58;;;;;;;;;;5063293;28;20203;-70
2022/06/10 04:39:45;;;;;;;7.05;3.92;;;;;;;;;;5063790;28;20200;-70
2022/06/10 04:42:11;;;;;;;3.80;2.45;;;;;;;;;;5063684;28;20197;-70
2022/06/10 04:44:37;;;;;;;2.67;2.50;;;;;;;;;;5063620;28;20204;-70
2022/06/10 04:47:06;;;;;;;4.00;2.25;;;;;;;;;;5063287;28;20212;-70
2022/06/10 04:49:32;;;;;;;6.50;2.50;;;;;;;;;;5063406;28;20392;-70
2022/06/10 04:51:58;;;;;;;2.15;2.00;;;;;;;;;;5063411;28;20439;-70
2022/06/10 04:54:26;;;;;;;4.30;2.35;;;;;;;;;;5063350;28;20205;-70
2022/06/10 04:56:52;;;;;;;2.10;2.00;;;;;;;;;;5063254;28;20197;-70
2022/06/10 04:59:19;;;;;;;2.55;2.35;;;;;;;;;;5063305;28;20206;-70
2022/06/10 05:01:45;;;;;;;4.70;2.42;;;;;;;;;;5063209;28;20201;-70
2022/06/10 05:04:11;;;;;;;5.33;2.47;;;;;;;;;;5026798;28;1038613;-70
2022/06/10 05:06:37;;;;;;;2.88;2.40;;;;;;;;;;5063732;28;20229;-70
2022/06/10 05:09:04;;;;;;;2.53;2.33;;;;;;;;;;5063742;28;20204;-70
2022/06/10 05:11:32;;;;;;;3.25;2.20;;;;;;;;;;5064012;28;20221;-69
2022/06/10 05:13:58;;;;;;;2.75;2.20;;;;;;;;;;5064090;28;20201;-70
2022/06/10 05:16:25;;;;;;;5.72;2.40;;;;;;;;;;5064164;28;20204;-70
2022/06/10 05:18:51;;;;;;;3.65;2.10;;;;;;;;;;5063709;28;20197;-70
2022/06/10 05:21:17;;;;;;;4.50;2.45;;;;;;;;;;5064229;28;20389;-70
2022/06/10 05:23:45;;;;;;;8.70;2.40;;;;;;;;;;5064863;28;20228;-70
2022/06/10 05:26:11;;;;;;;5.03;2.20;;;;;;;;;;5063726;28;20224;-70
2022/06/10 05:28:39;;;;;;;6.38;3.25;;;;;;;;;;5063958;28;20429;-70
2022/06/10 05:31:05;;;;;;;6.70;2.63;;;;;;;;;;5063636;28;20219;-70
2022/06/10 05:36:12;;;;;;;2.78;2.38;;;;;;;;;;5062680;28;20185;-70
2022/06/10 05:38:38;;;;;;;3.20;2.50;;;;;;;;;;5063580;28;20204;-70
2022/06/10 05:42:04;;;;;;;5.18;3.00;;;;;;;;;;5063416;28;20197;-70
2022/06/10 05:43:52;;;;;;;4.38;2.47;;;;;;;;;;5062927;28;20196;-70
2022/06/10 05:46:19;;;;;;;3.55;2.30;;;;;;;;;;5063177;28;20492;-70
2022/06/10 05:48:45;;;;;;;2.50;2.40;;;;;;;;;;5063255;28;20497;-70
2022/06/10 05:51:12;;;;;;;7.60;2.60;;;;;;;;;;5063126;28;20224;-70
2022/06/10 05:53:38;;;;;;;3.40;2.28;;;;;;;;;;5062934;28;20196;-70
2022/06/10 05:56:05;;;;;;;8.60;3.00;;;;;;;;;;5063029;28;20220;-70
2022/06/10 05:58:31;;;;;;;6.82;2.60;;;;;;;;;;5062989;28;20197;-69
2022/06/10 06:00:59;;;;;;;4.25;2.30;;;;;;;;;;5062925;28;20193;-69
2022/06/10 06:03:25;;;;;;;5.75;2.38;;;;;;;;;;5051453;28;20212;-69
2022/06/10 06:05:51;;;;;;;4.40;2.28;;;;;;;;;;5055218;28;20241;-69
2022/06/10 06:08:17;;;;;;;7.00;3.20;;;;;;;;;;5047141;28;20212;-70
2022/06/10 06:10:44;;;;;;;2.65;2.33;;;;;;;;;;5048136;28;20423;-70
2022/06/10 06:13:11;;;;;;;3.67;2.00;;;;;;;;;;5036560;28;20439;-70
2022/06/10 06:15:38;;;;;;;3.25;2.40;;;;;;;;;;5049704;28;20219;-70
2022/06/10 06:18:06;;;;;;;4.57;2.58;;;;;;;;;;5056016;28;20220;-70
2022/06/10 06:20:32;;;;;;;5.95;2.30;;;;;;;;;;5054849;28;20262;-60
2022/06/10 06:22:58;;;;;;;4.78;2.42;;;;;;;;;;5056395;28;20482;-59
2022/06/10 06:25:24;;;;;;;6.38;2.50;;;;;;;;;;5055708;28;20228;-58
2022/06/10 06:27:52;;;;;;;5.15;2.55;;;;;;;;;;5055959;28;20228;-60
2022/06/10 06:30:19;;;;;;;6.15;2.38;;;;;;;;;;5055956;28;20216;-60
2022/06/10 06:32:47;;;;;;;4.40;2.70;;;;;;;;;;5055923;28;20231;-60
2022/06/10 06:35:15;;;;;;;8.45;3.05;;;;;;;;;;5055790;28;20240;-60
2022/06/10 06:37:42;;;;;;;4.93;2.05;;;;;;;;;;5055933;28;20237;-60
2022/06/10 06:40:10;;;;;;;4.25;2.60;;;;;;;;;;5055858;28;20300;-60
2022/06/10 06:42:36;;;;;;;4.18;2.47;;;;;;;;;;5055647;28;20205;-60
2022/06/10 06:45:03;;;;;;;6.57;2.50;;;;;;;;;;5044996;28;20220;-60
2022/06/10 06:47:29;;;;;;;9.13;2.80;;;;;;;;;;5036392;28;20218;-59
2022/06/10 06:49:55;;;;;;;5.72;2.40;;;;;;;;;;5035569;28;20440;-60
2022/06/10 06:52:23;;;;;;;7.35;2.17;;;;;;;;;;5035929;28;20475;-61
2022/06/10 06:54:49;;;;;;;4.28;2.30;;;;;;;;;;5035600;28;20217;-58
2022/06/10 06:57:17;;;;;;;4.05;2.20;;;;;;;;;;5042731;28;20208;-60
2022/06/10 06:59:43;;;;;;;2.90;2.05;;;;;;;;;;5055942;28;20216;-60
2022/06/10 07:02:10;;;;;;;5.90;2.50;;;;;;;;;;5055931;28;20208;-59
2022/06/10 07:04:36;;;;;;;5.13;2.50;;;;;;;;;;5055821;28;20217;-61
2022/06/10 07:07:03;;;;;;;5.70;2.28;;;;;;;;;;5057070;28;20420;-60
2022/06/10 07:09:30;;;;;;;4.07;2.20;;;;;;;;;;5056197;28;20224;-59
2022/06/10 07:11:57;;;;;;;7.40;2.47;;;;;;;;;;5055382;28;20229;-60
2022/06/10 07:14:23;;;;;;;4.25;2.15;;;;;;;;;;5055670;28;20533;-60
2022/06/10 07:16:51;;;;;;;6.00;2.35;;;;;;;;;;5055566;28;20242;-60
2022/06/10 07:19:17;;;;;;;3.65;2.10;;;;;;;;;;5055665;28;20240;-61
2022/06/10 07:21:44;;;;;;;3.95;2.05;;;;;;;;;;5055329;28;20567;-60
2022/06/10 07:24:10;;;;;;;4.10;1.95;;;;;;;;;;5054750;28;20213;-61
2022/06/10 07:26:38;;;;;;;5.28;2.13;;;;;;;;;;5055371;28;20213;-61
2022/06/10 07:29:05;;;;;;;5.05;2.15;;;;;;;;;;5055418;28;20374;-61
2022/06/10 07:31:31;;;;;;;8.98;2.38;;;;;;;;;;5055165;28;20225;-61
2022/06/10 07:33:58;;;;;;;5.85;2.70;;;;;;;;;;5054693;28;20517;-61
2022/06/10 07:36:26;;;;;;;5.03;2.15;;;;;;;;;;5055326;28;20254;-60
2022/06/10 07:38:53;;;;;;;3.50;1.70;;;;;;;;;;5055893;28;20280;-60
2022/06/10 07:44:03;;;;;;;12.02;2.03;;;;;;;;;;5046959;28;20408;-61
2022/06/10 07:46:30;;;;;;;7.40;1.77;;;;;;;;;;5041676;28;20210;-60
2022/06/10 07:48:56;;;;;;;6.90;1.98;;;;;;;;;;5035436;28;20218;-61
2022/06/10 07:51:23;;;;;;;6.20;1.80;;;;;;;;;;5044682;28;20240;-60
2022/06/10 07:53:50;;;;;;;6.28;1.67;;;;;;;;;;5054983;28;20209;-60
2022/06/10 07:56:17;;;;;;;13.93;2.40;;;;;;;;;;5055532;28;20232;-59
2022/06/10 07:58:44;;;;;;;9.05;3.78;;;;;;;;;;5057951;28;20212;-60
2022/06/10 08:01:12;;;;;;;12.23;3.83;;;;;;;;;;5058897;28;20205;-60
2022/06/10 08:03:38;;;;;;;14.57;5.20;;;;;;;;;;5058395;28;20430;-60
2022/06/10 08:06:05;;;;;;;8.82;3.13;;;;;;;;;;5058351;28;20239;-61
2022/06/10 08:08:31;;;;;;;4.40;1.80;;;;;;;;;;5058463;28;20405;-61
2022/06/10 08:10:57;;;;;;;5.28;2.58;;;;;;;;;;5058478;28;20215;-61
2022/06/10 08:13:24;;;;;;;4.35;1.65;;;;;;;;;;5057835;28;20213;-61
2022/06/10 08:15:50;;;;;;;3.15;1.40;;;;;;;;;;5046947;28;20479;-61
2022/06/10 08:18:19;;;;;;;1.80;1.08;;;;;;;;;;5055668;28;20216;-61
2022/06/10 08:23:31;;;;;;;4.43;1.98;;;;;;;;;;5057609;28;20519;-60
2022/06/10 08:25:57;;;;;;;3.90;2.10;;;;;;;;;;5058288;28;20663;-61
2022/06/10 08:28:24;;;;;;;5.47;1.42;;;;;;;;;;5058277;28;20216;-61
2022/06/10 08:30:50;;;;;;;8.60;1.88;;;;;;;;;;5058527;28;20257;-61
2022/06/10 08:33:18;;;;;;;4.28;1.45;;;;;;;;;;5058203;28;20212;-63
2022/06/10 08:35:45;;;;;;;5.00;1.60;;;;;;;;;;5056823;28;20450;-62
2022/06/10 08:38:13;;;;;;;4.20;1.48;;;;;;;;;;5052560;28;20438;-61
2022/06/10 08:40:44;;;;;;;8.10;1.50;;;;;;;;;;5038364;28;20217;-62
2022/06/10 08:43:14;;;;;;;6.28;1.60;;;;;;;;;;5037749;28;20214;-61
2022/06/10 08:45:47;;;;;;;2.88;1.15;;;;;;;;;;5037890;28;20213;-61
2022/06/10 08:48:19;;;;;;;3.00;1.10;;;;;;;;;;5037643;28;20424;-59
2022/06/10 08:50:51;;;;;;;4.35;1.42;;;;;;;;;;5037852;28;20210;-61
2022/06/10 08:53:34;;;;;;;3.30;1.30;;;;;;;;;;5037579;28;20226;-60
2022/06/10 08:56:05;;;;;;;5.28;1.35;;;;;;;;;;5038110;28;20209;-59
2022/06/10 08:58:33;;;;;;;3.30;1.10;;;;;;;;;;5055625;28;20209;-61
2022/06/10 09:01:01;;;;;;;3.53;1.38;;;;;;;;;;5058337;28;20424;-61
2022/06/10 09:03:31;;;;;;;4.55;1.35;;;;;;;;;;5057549;28;20251;-62
2022/06/10 09:06:01;;;;;;;3.85;1.40;;;;;;;;;;5057110;28;20240;-62
2022/06/10 09:08:31;;;;;;;7.78;1.40;;;;;;;;;;5057968;28;20216;-63
2022/06/10 09:10:58;;;;;;;4.88;1.33;;;;;;;;;;5056818;28;20227;-61
2022/06/10 09:13:32;;;;;;;6.47;1.63;;;;;;;;;;5057376;28;20602;-63
2022/06/10 09:16:01;;;;;;;3.22;1.40;;;;;;;;;;5057648;28;20209;-62
2022/06/10 09:18:28;;;;;;;5.78;1.23;;;;;;;;;;5057722;28;20397;-63
2022/06/10 09:20:57;;;;;;;3.65;1.35;;;;;;;;;;5057586;28;20219;-62
2022/06/10 09:23:28;;;;;;;6.22;1.48;;;;;;;;;;5057452;28;20889;-62
2022/06/10 09:25:57;;;;;;;4.90;1.38;;;;;;;;;;5057248;28;20412;-60
2022/06/10 09:28:23;;;;;;;3.58;1.40;;;;;;;;;;5057660;28;20204;-61
2022/06/10 09:30:54;;;;;;;5.55;1.50;;;;;;;;;;5056981;28;20208;-59
2022/06/10 09:33:23;;;;;;;5.78;1.15;;;;;;;;;;5056774;28;20233;-60
2022/06/10 09:35:53;;;;;;;4.28;1.55;;;;;;;;;;5056682;28;20423;-61
2022/06/10 09:41:27;;;;;;;6.40;1.48;;;;;;;;;;5057422;28;20328;-58
2022/06/10 09:44:02;;;;;;;11.88;5.97;;;;;;;;;;5049637;28;20279;-62
2022/06/10 09:46:45;;;;;;;4.60;1.15;;;;;;;;;;5036846;28;20213;-62
2022/06/10 09:49:20;;;;;;;3.63;2.28;;;;;;;;;;5036721;28;20456;-62
2022/06/10 09:51:55;;;;;;;2.75;1.20;;;;;;;;;;5036482;28;20570;-61
2022/06/10 09:54:26;;;;;;;2.30;1.25;;;;;;;;;;5036764;28;20280;-60
2022/06/10 09:57:13;;;;;;;4.75;1.00;;;;;;;;;;5040520;28;20500;-60
2022/06/10 09:59:41;;;;;;;2.95;1.27;;;;;;;;;;5057279;28;20212;-60
2022/06/10 10:02:16;;;;;;;2.15;0.90;;;;;;;;;;5056559;28;20209;-61
2022/06/10 10:04:58;;;;;;;5.80;1.75;;;;;;;;;;5056797;28;20224;-61
2022/06/10 10:07:37;;;;;;;5.30;1.40;;;;;;;;;;5056214;28;20219;-61
2022/06/10 10:10:10;;;;;;;10.98;5.38;;;;;;;;;;5056060;28;20212;-62
2022/06/10 10:12:44;;;;;;;3.85;1.08;;;;;;;;;;5055873;28;20551;-59
2022/06/10 10:15:17;;;;;;;5.18;1.10;;;;;;;;;;5055482;28;20208;-60
2022/06/10 10:18:06;;;;;;;2.05;1.13;;;;;;;;;;5051798;28;20220;-62
2022/06/10 10:20:41;;;;;;;5.63;1.00;;;;;;;;;;5036187;28;20209;-61
2022/06/10 10:23:11;;;;;;;3.13;1.20;;;;;;;;;;5035900;28;20512;-60
2022/06/10 10:25:39;;;;;;;0.63;0.52;;;;;;;;;;5036221;28;20440;-61
2022/06/10 10:28:14;;;;;;;1.10;0.77;;;;;;;;;;5036195;28;20216;-60
2022/06/10 10:30:42;;;;;;;3.15;0.55;;;;;;;;;;5036152;28;20209;-59
2022/06/10 10:33:11;;;;;;;1.58;0.80;;;;;;;;;;5036064;28;20232;-60
2022/06/10 10:35:38;;;;;;;3.10;1.38;;;;;;;;;;5035940;28;20220;-60
2022/06/10 10:38:06;;;;;;;4.50;1.35;;;;;;;;;;5035683;28;20209;-61
2022/06/10 10:40:35;;;;;;;5.53;1.10;;;;;;;;;;5036385;28;20294;-60
2022/06/10 10:43:04;;;;;;;1.20;0.90;;;;;;;;;;5036085;28;20212;-60
2022/06/10 10:45:34;;;;;;;3.03;0.95;;;;;;;;;;5035920;28;20216;-61
2022/06/10 10:48:03;;;;;;;1.60;1.00;;;;;;;;;;5035519;28;20687;-61
2022/06/10 10:50:31;;;;;;;3.67;1.02;;;;;;;;;;5036100;28;20216;-61
2022/06/10 10:52:58;;;;;;;2.38;0.98;;;;;;;;;;5035860;28;20233;-61
2022/06/10 10:55:27;;;;;;;6.95;1.20;;;;;;;;;;5039535;28;20381;-61
2022/06/10 10:58:01;;;;;;;1.88;0.80;;;;;;;;;;5055873;28;20212;-61
2022/06/10 11:00:31;;;;;;;2.05;1.08;;;;;;;;;;5055714;28;20456;-61
2022/06/10 11:03:01;;;;;;;1.40;0.85;;;;;;;;;;5055392;28;20197;-62
2022/06/10 11:05:31;;;;;;;2.67;1.13;;;;;;;;;;5055383;28;20232;-61
2022/06/10 11:08:15;;;;;;;3.45;1.02;;;;;;;;;;5055490;28;20284;-60
2022/06/10 11:10:50;;;;;;;2.70;1.13;;;;;;;;;;5055759;28;20257;-61
2022/06/10 11:13:19;;;;;;;1.33;0.85;;;;;;;;;;5055470;28;20224;-60
2022/06/10 11:15:45;;;;;;;2.88;1.00;;;;;;;;;;5055552;28;20542;-61
2022/06/10 11:18:14;;;;;;;2.63;1.10;;;;;;;;;;5055603;28;20212;-61
2022/06/10 11:20:40;;;;;;;5.90;0.93;;;;;;;;;;5055925;28;20208;-59
2022/06/10 11:23:11;;;;;;;0.80;0.80;;;;;;;;;;5055303;28;20271;-60
2022/06/10 11:25:38;;;;;;;5.50;4.55;;;;;;;;;;5055339;28;20213;-61
2022/06/10 11:28:06;;;;;;;1.88;1.20;;;;;;;;;;5055485;28;20215;-61
2022/06/10 11:30:35;;;;;;;3.40;0.98;;;;;;;;;;5056079;28;20520;-61
2022/06/10 11:33:02;;;;;;;3.28;1.08;;;;;;;;;;5056647;28;20232;-61
2022/06/10 11:35:32;;;;;;;1.75;1.08;;;;;;;;;;5059726;28;20291;-61
2022/06/10 11:38:00;;;;;;;1.80;0.82;;;;;;;;;;5059342;28;20533;-60
2022/06/10 11:40:27;;;;;;;1.95;0.95;;;;;;;;;;5059865;28;20216;-59
2022/06/10 11:42:57;;;;;;;1.45;1.00;;;;;;;;;;5058986;28;20212;-61
2022/06/10 11:45:25;;;;;;;3.58;0.90;;;;;;;;;;5058920;28;20205;-62
2022/06/10 11:47:54;;;;;;;2.63;0.98;;;;;;;;;;5058933;28;20210;-61
2022/06/10 11:50:25;;;;;;;0.95;0.65;;;;;;;;;;5059022;28;20208;-61
2022/06/10 11:52:56;;;;;;;2.40;1.05;;;;;;;;;;5058803;28;20228;-60
2022/06/10 11:55:25;;;;;;;5.95;1.05;;;;;;;;;;5059019;28;20208;-60
2022/06/10 12:00:44;;;;;;;4.50;0.98;;;;;;;;;;5059028;28;20211;-60
2022/06/10 12:03:15;;;;;;;2.95;0.93;;;;;;;;;;5058463;28;20205;-60
2022/06/10 12:05:45;;;;;;;2.42;1.00;;;;;;;;;;5058432;28;20236;-60
2022/06/10 12:08:15;;;;;;;2.63;1.20;;;;;;;;;;5058439;28;20208;-60
2022/06/10 12:10:44;;;;;;;2.92;0.65;;;;;;;;;;5058776;28;20197;-60
2022/06/10 12:13:11;;;;;;;2.13;1.10;;;;;;;;;;5058638;28;20235;-60
2022/06/10 12:15:41;;;;;;;4.93;1.40;;;;;;;;;;5058469;28;20366;-60
2022/06/10 12:18:10;;;;;;;1.92;0.80;;;;;;;;;;5058439;28;20524;-60
2022/06/10 12:20:41;;;;;;;3.15;0.93;;;;;;;;;;5058573;28;20274;-61
2022/06/10 12:23:12;;;;;;;0.82;0.60;;;;;;;;;;5058147;28;20522;-60
2022/06/10 12:25:47;;;;;;;1.73;0.70;;;;;;;;;;5058572;28;20200;-60
2022/06/10 12:28:21;;;;;;;2.47;0.73;;;;;;;;;;5058399;28;20239;-61
2022/06/10 12:30:50;;;;;;;2.20;1.00;;;;;;;;;;5058905;28;20223;-60
2022/06/10 12:33:21;;;;;;;1.40;0.70;;;;;;;;;;5057707;28;20455;-70
2022/06/10 12:35:48;;;;;;;1.23;0.50;;;;;;;;;;5059087;28;20532;-70
2022/06/10 12:38:16;;;;;;;1.42;0.60;;;;;;;;;;5058362;28;20211;-69
2022/06/10 12:40:45;;;;;;;2.65;0.52;;;;;;;;;;5058527;28;20205;-69
2022/06/10 12:43:15;;;;;;;2.53;0.50;;;;;;;;;;5057944;28;20370;-69
2022/06/10 12:45:44;;;;;;;1.15;0.70;;;;;;;;;;5058488;28;20208;-69
2022/06/10 12:48:13;;;;;;;1.42;0.80;;;;;;;;;;5058010;28;20243;-70
2022/06/10 12:50:49;;;;;;;4.45;0.95;;;;;;;;;;5057844;28;20239;-69
2022/06/10 12:53:29;;;;;;;0.57;0.47;;;;;;;;;;5058223;28;20235;-70
2022/06/10 12:55:58;;;;;;;2.47;0.60;;;;;;;;;;5057883;28;20208;-69
2022/06/10 12:58:44;;;;;;;0.90;0.70;;;;;;;;;;5058165;28;20699;-69
2022/06/10 13:01:11;;;;;;;0.40;0.40;;;;;;;;;;5058716;28;20208;-69
2022/06/10 13:03:39;;;;;;;0.95;0.80;;;;;;;;;;5058079;28;20209;-69
2022/06/10 13:06:20;;;;;;;0.93;0.50;;;;;;;;;;5057591;28;20538;-70
2022/06/10 13:08:49;;;;;;;1.15;0.60;;;;;;;;;;5058059;28;20208;-70
2022/06/10 13:11:30;;;;;;;0.65;0.65;;;;;;;;;;5057762;28;20386;-70
2022/06/10 13:14:09;;;;;;;1.27;1.17;;;;;;;;;;5057404;28;20579;-70
2022/06/10 13:16:37;;;;;;;1.85;0.50;;;;;;;;;;5057792;28;20204;-70
2022/06/10 13:19:04;;;;;;;1.65;0.80;;;;;;;;;;5057670;28;20599;-70
2022/06/10 13:21:31;;;;;;;1.40;0.50;;;;;;;;;;5057906;28;20216;-69
2022/06/10 13:24:10;;;;;;;0.85;0.70;;;;;;;;;;5057270;28;20299;-70
2022/06/10 13:26:38;;;;;;;0.55;0.50;;;;;;;;;;5057919;28;20245;-70
2022/06/10 13:29:06;;;;;;;2.63;0.77;;;;;;;;;;5058017;28;20221;-69
2022/06/10 13:31:32;;;;;;;1.40;0.68;;;;;;;;;;5057832;28;21085;-70
2022/06/10 13:34:00;;;;;;;1.13;0.50;;;;;;;;;;5057092;28;20563;-70
2022/06/10 13:36:27;;;;;;;5.13;0.70;;;;;;;;;;5057351;28;20307;-70
2022/06/10 13:38:55;;;;;;;2.25;0.47;;;;;;;;;;5057362;28;20405;-69
2022/06/10 13:44:25;;;;;;;1.90;0.60;;;;;;;;;;5057179;28;20203;-70
2022/06/10 13:46:52;;;;;;;1.65;0.73;;;;;;;;;;5057357;28;20208;-69
2022/06/10 13:49:42;;;;;;;1.85;0.70;;;;;;;;;;5057264;28;20520;-70
2022/06/10 13:52:24;;;;;;;0.68;0.60;;;;;;;;;;5041237;28;20560;-70
2022/06/10 13:54:50;;;;;;;0.50;0.50;;;;;;;;;;5036907;28;20225;-70
2022/06/10 13:57:17;;;;;;;1.40;0.63;;;;;;;;;;5043626;28;20581;-69
2022/06/10 13:59:45;;;;;;;3.47;0.65;;;;;;;;;;5057200;28;20255;-70
2022/06/10 14:02:15;;;;;;;1.17;0.55;;;;;;;;;;5056909;28;20215;-70
2022/06/10 14:04:43;;;;;;;2.15;0.60;;;;;;;;;;5056174;28;20251;-70
2022/06/10 14:07:14;;;;;;;0.52;0.52;;;;;;;;;;5056636;28;20216;-70
2022/06/10 14:09:41;;;;;;;1.17;0.50;;;;;;;;;;5056702;28;20216;-70
2022/06/10 14:12:13;;;;;;;0.47;0.30;;;;;;;;;;5056663;28;20215;-70
2022/06/10 14:14:41;;;;;;;1.77;0.60;;;;;;;;;;5056181;28;20220;-70
2022/06/10 14:17:15;;;;;;;3.65;0.63;;;;;;;;;;5056428;28;20280;-70
2022/06/10 14:19:43;;;;;;;3.83;0.70;;;;;;;;;;5056331;28;20211;-70
2022/06/10 14:22:10;;;;;;;2.03;0.60;;;;;;;;;;5056495;28;20209;-70
2022/06/10 14:24:36;;;;;;;2.58;0.57;;;;;;;;;;5055972;28;20226;-70
2022/06/10 14:27:09;;;;;;;1.42;0.70;;;;;;;;;;5056494;28;20216;-70
2022/06/10 14:29:39;;;;;;;1.02;0.60;;;;;;;;;;5056737;28;20231;-70
2022/06/10 14:32:16;;;;;;;0.63;0.50;;;;;;;;;;5056614;28;20231;-70
2022/06/10 14:34:44;;;;;;;1.38;0.70;;;;;;;;;;5055987;28;20227;-70
2022/06/10 14:37:24;;;;;;;2.13;0.90;;;;;;;;;;5056171;28;20246;-70
2022/06/10 14:40:02;;;;;;;2.60;0.70;;;;;;;;;;5056879;28;20409;-70
2022/06/10 14:42:32;;;;;;;2.15;0.63;;;;;;;;;;5056125;28;20204;-70
2022/06/10 14:44:59;;;;;;;0.85;0.75;;;;;;;;;;5055785;28;20279;-70
2022/06/10 14:47:29;;;;;;;0.55;0.55;;;;;;;;;;5055976;28;20208;-70
2022/06/10 14:49:58;;;;;;;1.52;0.60;;;;;;;;;;5056042;28;20208;-70
2022/06/10 14:52:27;;;;;;;0.73;0.65;;;;;;;;;;5056039;28;20208;-69
2022/06/10 14:54:53;;;;;;;1.13;0.70;;;;;;;;;;5055631;28;20232;-69
2022/06/10 14:57:21;;;;;;;2.40;0.65;;;;;;;;;;5056322;28;20212;-70
2022/06/10 14:59:48;;;;;;;0.75;0.75;;;;;;;;;;5056873;28;20208;-70
2022/06/10 15:02:14;;;;;;;0.82;0.60;;;;;;;;;;5056226;28;20204;-70
2022/06/10 15:06:14;;;;;;;0.70;0.50;;;;;;;;;;5055332;28;20482;-70
2022/06/10 15:07:27;;;;;;;1.25;0.63;;;;;;;;;;5057749;28;20232;-70
2022/06/10 15:09:54;;;;;;;2.33;0.63;;;;;;;;;;5060077;28;20612;-70
2022/06/10 15:12:22;;;;;;;3.45;0.82;;;;;;;;;;5060201;28;20212;-70
2022/06/10 15:14:48;;;;;;;3.03;0.85;;;;;;;;;;5059544;28;20224;-70
2022/06/10 15:17:15;;;;;;;2.28;0.70;;;;;;;;;;5060203;28;20212;-70